Time;durP1;ratioP1;P1;durP2;ratioP2;P2;SDS_P1;SDS_P2;PMS_P1;PMS_P2;Temp;Humidity;BMP_temperature;BMP_pressure;BME280_temperature;BME280_humidity;BME280_pressure;Samples;Min_cycle;Max_cycle;Signal;HPM_P1;HPM_P2
2022/02/02 00:01:27;;;;;;;;;;;4.80;99.90;;;;;;5073422;28;19956;-77
2022/02/02 00:03:56;;;;;;;;;;;4.80;99.90;;;;;;5062524;28;20023;-76
2022/02/02 00:06:36;;;;;;;;;;;4.80;99.90;;;;;;5026026;28;19921;-77
2022/02/02 00:09:08;;;;;;;;;;;4.80;99.90;;;;;;5064529;28;20413;-76
2022/02/02 00:14:19;;;;;;;;;;;4.80;99.90;;;;;;5061882;28;20560;-76
2022/02/02 00:16:50;;;;;;;;;;;4.80;99.90;;;;;;5061293;28;19968;-77
2022/02/02 00:19:27;;;;;;;;;;;4.90;99.90;;;;;;5060225;28;19970;-76
2022/02/02 00:22:16;;;;;;;;;;;4.90;99.90;;;;;;5059651;28;20522;-76
2022/02/02 00:27:15;;;;;;;;;;;4.90;99.90;;;;;;5058401;28;20390;-76
2022/02/02 00:29:47;;;;;;;;;;;4.90;99.90;;;;;;5060540;28;20032;-76
2022/02/02 00:34:47;;;;;;;;;;;5.00;99.90;;;;;;5061480;28;19932;-75
2022/02/02 00:37:15;;;;;;;;;;;5.00;99.90;;;;;;5043523;28;20019;-74
2022/02/02 00:39:42;;;;;;;;;;;4.90;99.90;;;;;;5069457;28;19964;-75
2022/02/02 00:42:09;;;;;;;;;;;4.90;99.90;;;;;;5043839;28;19920;-75
2022/02/02 00:44:41;;;;;;;;;;;4.90;99.90;;;;;;5061331;28;20401;-74
2022/02/02 00:47:08;;;;;;;;;;;4.90;99.90;;;;;;5042938;28;20161;-74
2022/02/02 00:49:36;;;;;;;;;;;4.90;99.90;;;;;;5045235;28;20036;-74
2022/02/02 00:52:03;;;;;;;;;;;4.90;99.90;;;;;;5060875;28;20362;-75
2022/02/02 00:54:29;;;;;;;;;;;4.90;99.90;;;;;;5043805;28;19948;-74
2022/02/02 00:56:56;;;;;;;;;;;4.90;99.90;;;;;;5041500;28;19977;-74
2022/02/02 00:59:23;;;;;;;;;;;5.00;99.90;;;;;;5061557;28;19925;-74
2022/02/02 01:01:50;;;;;;;;;;;5.00;99.90;;;;;;5059406;28;20309;-74
2022/02/02 01:04:17;;;;;;;;;;;5.10;99.90;;;;;;5058935;28;19925;-74
2022/02/02 01:06:54;;;;;;;;;;;5.00;99.90;;;;;;5059534;28;20017;-75
2022/02/02 01:17:46;;;;;;;;;;;4.90;99.90;;;;;;5039830;28;19929;-74
2022/02/02 01:28:25;;;;;;;;;;;4.80;99.90;;;;;;5043111;28;20339;-74
2022/02/02 01:30:52;;;;;;;;;;;4.80;99.90;;;;;;5044054;28;19921;-74
2022/02/02 01:33:19;;;;;;;;;;;4.80;99.90;;;;;;5045837;28;20370;-74
2022/02/02 01:35:46;;;;;;;;;;;4.90;99.90;;;;;;5044995;28;19931;-74
2022/02/02 01:38:13;;;;;;;;;;;4.90;99.90;;;;;;5045334;28;20612;-74
2022/02/02 01:40:49;;;;;;;;;;;4.90;99.90;;;;;;5051045;28;19928;-74
2022/02/02 01:43:32;;;;;;;;;;;4.90;99.90;;;;;;5063344;28;20100;-74
2022/02/02 01:46:06;;;;;;;;;;;5.00;99.90;;;;;;5045055;28;20362;-74
2022/02/02 01:48:47;;;;;;;;;;;5.00;99.90;;;;;;5062739;28;19951;-74
2022/02/02 01:56:12;;;;;;;;;;;5.00;99.90;;;;;;5040812;28;19925;-73
2022/02/02 02:01:07;;;;;;;;;;;5.00;99.90;;;;;;5074687;28;19959;-73
2022/02/02 02:03:34;;;;;;;;;;;5.10;99.90;;;;;;5049251;28;20320;-73
2022/02/02 02:06:01;;;;;;;;;;;5.00;99.90;;;;;;5043781;28;20170;-73
2022/02/02 02:08:28;;;;;;;;;;;5.00;99.90;;;;;;5062325;28;20023;-74
2022/02/02 02:10:55;;;;;;;;;;;5.00;99.90;;;;;;5035093;28;19942;-75
2022/02/02 02:16:03;;;;;;;;;;;4.90;99.90;;;;;;5081317;28;20006;-75
2022/02/02 02:18:29;;;;;;;;;;;4.90;99.90;;;;;;5063652;28;19920;-75
2022/02/02 02:20:57;;;;;;;;;;;4.90;99.90;;;;;;5062057;28;20444;-75
2022/02/02 02:23:24;;;;;;;;;;;4.90;99.90;;;;;;5028082;28;20333;-75
2022/02/02 02:25:51;;;;;;;;;;;4.90;99.90;;;;;;5062224;28;20298;-75
2022/02/02 02:30:58;;;;;;;;;;;4.80;99.90;;;;;;5061442;28;19927;-75
2022/02/02 03:14:35;;;;;;;;;;;4.60;99.90;;;;;;5060725;28;19924;-73
2022/02/02 03:30:17;;;;;;;;;;;4.60;99.90;;;;;;5041469;28;19924;-73
2022/02/02 03:34:28;;;;;;;;;;;4.60;99.90;;;;;;5042209;28;19963;-72
2022/02/02 03:49:48;;;;;;;;;;;4.50;99.90;;;;;;5080504;28;20401;-72
2022/02/02 04:05:41;;;;;;;;;;;4.60;99.90;;;;;;5059659;28;19963;-72
2022/02/02 04:08:25;;;;;;;;;;;4.50;99.90;;;;;;5030136;28;20295;-71
2022/02/02 04:10:54;;;;;;;;;;;4.50;99.90;;;;;;5032818;28;19964;-71
2022/02/02 04:52:54;;;;;;;;;;;4.00;99.90;;;;;;5056545;28;19931;-72
2022/02/02 05:03:43;;;;;;;;;;;4.00;99.90;;;;;;4983461;28;19921;-72
2022/02/02 05:06:23;;;;;;;;;;;4.00;99.90;;;;;;5038352;28;20157;-72
2022/02/02 05:28:34;;;;;;;;;;;4.10;99.90;;;;;;5062299;28;20612;-72
2022/02/02 05:42:23;;;;;;;;;;;4.20;99.90;;;;;;5043555;28;20027;-72
2022/02/02 05:52:10;;;;;;;;;;;4.20;99.90;;;;;;5043194;28;19920;-72
2022/02/02 05:54:37;;;;;;;;;;;4.20;99.90;;;;;;5062381;28;20022;-72
2022/02/02 05:57:06;;;;;;;;;;;4.20;99.90;;;;;;5042157;28;20011;-71
2022/02/02 05:59:34;;;;;;;;;;;4.20;99.90;;;;;;5042914;28;19928;-71
2022/02/02 06:02:01;;;;;;;;;;;4.20;99.90;;;;;;5061249;28;19924;-71
2022/02/02 06:04:29;;;;;;;;;;;4.20;99.90;;;;;;5043307;28;20126;-72
2022/02/02 06:06:58;;;;;;;;;;;4.20;99.90;;;;;;5058354;28;19978;-71
2022/02/02 06:09:30;;;;;;;;;;;4.20;99.90;;;;;;5060829;28;20453;-71
2022/02/02 06:11:57;;;;;;;;;;;4.20;99.90;;;;;;5040899;28;20649;-71
2022/02/02 06:14:26;;;;;;;;;;;4.30;99.90;;;;;;5062910;28;19950;-72
2022/02/02 06:16:53;;;;;;;;;;;4.30;99.90;;;;;;5072652;28;19928;-74
2022/02/02 06:19:20;;;;;;;;;;;4.30;99.90;;;;;;5042910;28;19924;-71
2022/02/02 06:21:52;;;;;;;;;;;4.30;99.90;;;;;;5021814;28;20259;-71
2022/02/02 06:24:26;;;;;;;;;;;4.30;99.90;;;;;;5041480;28;19927;-71
2022/02/02 06:26:54;;;;;;;;;;;4.30;99.90;;;;;;5027641;28;19958;-71
2022/02/02 06:29:22;;;;;;;;;;;4.30;99.90;;;;;;5042559;28;19983;-71
2022/02/02 06:31:49;;;;;;;;;;;4.30;99.90;;;;;;5042753;28;20066;-71
2022/02/02 06:34:19;;;;;;;;;;;4.30;99.90;;;;;;5060273;28;20015;-71
2022/02/02 06:36:49;;;;;;;;;;;4.30;99.90;;;;;;5041725;28;20237;-71
2022/02/02 06:39:15;;;;;;;;;;;4.20;99.90;;;;;;5041939;28;20672;-71
2022/02/02 06:41:42;;;;;;;;;;;4.20;99.90;;;;;;5038173;28;20298;-71
2022/02/02 06:44:09;;;;;;;;;;;4.10;99.90;;;;;;5041799;28;20187;-71
2022/02/02 06:46:38;;;;;;;;;;;4.10;99.90;;;;;;5063116;28;19924;-71
2022/02/02 06:49:05;;;;;;;;;;;4.10;99.90;;;;;;5062115;28;20352;-71
2022/02/02 06:51:47;;;;;;;;;;;4.10;99.90;;;;;;5042133;28;20179;-72
2022/02/02 06:54:20;;;;;;;;;;;4.10;99.90;;;;;;5042688;28;20373;-72
2022/02/02 06:57:06;;;;;;;;;;;4.20;99.90;;;;;;5058339;28;19921;-72
2022/02/02 06:59:50;;;;;;;;;;;4.20;99.90;;;;;;5041636;28;19966;-71
2022/02/02 07:02:39;;;;;;;;;;;4.30;99.90;;;;;;5046416;28;20001;-71
2022/02/02 07:08:07;;;;;;;;;;;4.30;99.90;;;;;;5041098;28;19970;-71
2022/02/02 07:11:26;;;;;;;;;;;4.30;99.90;;;;;;5028171;28;21210;-71
2022/02/02 07:29:42;;;;;;;;;;;4.20;99.90;;;;;;5057114;28;20057;-74
2022/02/02 07:32:21;;;;;;;;;;;4.20;99.90;;;;;;5059504;28;20406;-74
2022/02/02 07:37:52;;;;;;;;;;;4.20;99.90;;;;;;5060813;28;19924;-74
2022/02/02 07:40:20;;;;;;;;;;;4.20;99.90;;;;;;5034073;28;20007;-74
2022/02/02 07:42:48;;;;;;;;;;;4.20;99.90;;;;;;5062009;28;19924;-74
2022/02/02 07:45:18;;;;;;;;;;;4.30;99.90;;;;;;5063627;28;19924;-73
2022/02/02 07:48:07;;;;;;;;;;;4.30;99.90;;;;;;5049160;28;19924;-73
2022/02/02 07:50:35;;;;;;;;;;;4.30;99.90;;;;;;5059584;28;19978;-73
2022/02/02 07:53:09;;;;;;;;;;;4.30;99.90;;;;;;5059897;28;19946;-75
2022/02/02 07:55:38;;;;;;;;;;;4.30;99.90;;;;;;5042108;28;20011;-74
2022/02/02 07:58:07;;;;;;;;;;;4.20;99.90;;;;;;5042674;28;19921;-74
2022/02/02 08:00:35;;;;;;;;;;;4.30;99.90;;;;;;5042689;28;20707;-74
2022/02/02 08:05:31;;;;;;;;;;;4.30;99.90;;;;;;5060100;28;20137;-74
2022/02/02 08:10:46;;;;;;;;;;;4.30;99.90;;;;;;5056800;28;19921;-74
2022/02/02 08:13:20;;;;;;;;;;;4.40;99.90;;;;;;5042927;28;19974;-75
2022/02/02 08:15:55;;;;;;;;;;;4.50;99.90;;;;;;5025283;28;19920;-74
2022/02/02 08:18:22;;;;;;;;;;;4.40;99.90;;;;;;5060545;28;19924;-75
2022/02/02 08:20:49;;;;;;;;;;;4.50;99.90;;;;;;5059103;28;20022;-74
2022/02/02 08:23:15;;;;;;;;;;;4.50;99.90;;;;;;5042412;28;19931;-74
2022/02/02 08:25:43;;;;;;;;;;;4.50;99.90;;;;;;5042559;28;19927;-74
2022/02/02 08:28:11;;;;;;;;;;;4.50;99.90;;;;;;5042608;28;20454;-75
2022/02/02 08:30:38;;;;;;;;;;;4.60;99.90;;;;;;5062768;28;20569;-74
2022/02/02 08:33:07;;;;;;;;;;;4.60;99.90;;;;;;5047384;28;19924;-75
2022/02/02 08:35:39;;;;;;;;;;;4.60;99.90;;;;;;5064053;28;20019;-73
2022/02/02 08:43:41;;;;;;;;;;;4.60;99.90;;;;;;5063373;28;20298;-74
2022/02/02 08:46:04;;;;;;;;;;;4.60;99.90;;;;;;5062064;28;20038;-74
2022/02/02 08:48:31;;;;;;;;;;;4.70;99.90;;;;;;5045855;28;19924;-74
2022/02/02 08:51:02;;;;;;;;;;;4.70;99.90;;;;;;5046206;28;19982;-74
2022/02/02 08:53:41;;;;;;;;;;;4.70;99.90;;;;;;5051142;28;19925;-75
2022/02/02 08:58:49;;;;;;;;;;;4.70;99.90;;;;;;5063478;28;19955;-74
2022/02/02 09:01:23;;;;;;;;;;;4.70;99.90;;;;;;5045555;28;19990;-74
2022/02/02 09:06:35;;;;;;;;;;;4.80;99.90;;;;;;5062635;28;19924;-74
2022/02/02 09:09:12;;;;;;;;;;;4.70;99.90;;;;;;5043890;28;20378;-74
2022/02/02 09:25:26;;;;;;;;;;;4.00;99.90;;;;;;5063607;28;20456;-74
2022/02/02 09:34:25;;;;;;;;;;;4.50;99.90;;;;;;5026376;28;19944;-75
2022/02/02 09:36:24;;;;;;;;;;;4.80;99.90;;;;;;5015961;28;19937;-75
2022/02/02 09:38:52;;;;;;;;;;;4.90;99.90;;;;;;5031628;28;20210;-75
2022/02/02 09:44:05;;;;;;;;;;;5.30;99.90;;;;;;5018045;28;19931;-74
2022/02/02 09:46:46;;;;;;;;;;;5.50;99.90;;;;;;5041233;28;20019;-75
2022/02/02 09:49:21;;;;;;;;;;;5.50;99.90;;;;;;5045335;28;20019;-76
2022/02/02 09:52:13;;;;;;;;;;;5.80;99.90;;;;;;5045291;28;19931;-75
2022/02/02 09:54:44;;;;;;;;;;;5.90;99.90;;;;;;5045007;28;20032;-75
2022/02/02 10:00:12;;;;;;;;;;;5.80;99.90;;;;;;5062401;28;19950;-72
2022/02/02 10:08:48;;;;;;;;;;;5.30;99.90;;;;;;5057665;28;19946;-73
2022/02/02 10:11:49;;;;;;;;;;;5.20;99.90;;;;;;5056975;28;20373;-72
2022/02/02 10:14:29;;;;;;;;;;;5.20;99.90;;;;;;5036284;28;19998;-72
2022/02/02 10:16:56;;;;;;;;;;;5.30;99.90;;;;;;5038901;28;20433;-73
2022/02/02 10:19:32;;;;;;;;;;;5.20;99.90;;;;;;5061951;28;20027;-72
2022/02/02 10:21:59;;;;;;;;;;;5.20;99.90;;;;;;5061699;28;19924;-73
2022/02/02 10:24:41;;;;;;;;;;;5.00;99.90;;;;;;5043111;28;19924;-73
2022/02/02 10:27:20;;;;;;;;;;;4.90;99.90;;;;;;5062639;28;19932;-73
2022/02/02 10:30:08;;;;;;;;;;;4.90;99.90;;;;;;5046121;28;20429;-74
2022/02/02 10:32:38;;;;;;;;;;;4.80;99.90;;;;;;5042810;28;20608;-74
2022/02/02 10:35:06;;;;;;;;;;;4.80;99.90;;;;;;5043566;28;19928;-74
2022/02/02 10:37:34;;;;;;;;;;;4.90;99.90;;;;;;5043144;28;20137;-74
2022/02/02 10:40:03;;;;;;;;;;;4.80;99.90;;;;;;5037029;28;19932;-72
2022/02/02 10:42:39;;;;;;;;;;;4.80;99.90;;;;;;5043648;28;19966;-73
2022/02/02 10:45:15;;;;;;;;;;;4.70;99.90;;;;;;5022954;28;19932;-73
2022/02/02 10:47:42;;;;;;;;;;;4.70;99.90;;;;;;5034242;28;19956;-74
2022/02/02 10:50:20;;;;;;;;;;;4.60;99.90;;;;;;5040954;28;19928;-75
2022/02/02 10:53:11;;;;;;;;;;;4.60;99.90;;;;;;5053154;28;20297;-74
2022/02/02 10:55:58;;;;;;;;;;;4.60;99.90;;;;;;5058590;28;20463;-74
2022/02/02 11:06:40;;;;;;;;;;;4.20;99.90;;;;;;5071789;28;19964;-74
2022/02/02 11:09:11;;;;;;;;;;;4.20;99.90;;;;;;5042440;28;19931;-74
2022/02/02 11:11:39;;;;;;;;;;;4.30;99.90;;;;;;5032836;28;19960;-75
2022/02/02 11:14:11;;;;;;;;;;;4.50;99.90;;;;;;5046805;28;19956;-74
2022/02/02 11:16:38;;;;;;;;;;;4.70;99.90;;;;;;5038497;28;20275;-73
2022/02/02 11:19:06;;;;;;;;;;;4.70;99.90;;;;;;5041594;28;19938;-73
2022/02/02 11:21:34;;;;;;;;;;;4.80;99.90;;;;;;5059303;28;19948;-74
2022/02/02 11:24:20;;;;;;;;;;;4.80;99.90;;;;;;5058336;28;20284;-73
2022/02/02 11:26:48;;;;;;;;;;;5.00;99.90;;;;;;5039371;28;19978;-73
2022/02/02 11:29:34;;;;;;;;;;;5.00;99.90;;;;;;5041986;28;19951;-75
2022/02/02 11:32:01;;;;;;;;;;;4.90;99.90;;;;;;5059964;28;19928;-73
2022/02/02 11:34:29;;;;;;;;;;;4.90;99.90;;;;;;5059573;28;20196;-73
2022/02/02 11:36:56;;;;;;;;;;;4.90;99.90;;;;;;5040482;28;20137;-73
2022/02/02 11:40:01;;;;;;;;;;;4.80;99.90;;;;;;5033786;28;20469;-72
2022/02/02 11:42:46;;;;;;;;;;;4.80;99.90;;;;;;5057101;28;19935;-73
2022/02/02 11:45:31;;;;;;;;;;;4.90;99.90;;;;;;5020605;28;20011;-73
2022/02/02 11:47:58;;;;;;;;;;;4.90;99.90;;;;;;5057975;28;20034;-72
2022/02/02 11:50:45;;;;;;;;;;;4.90;99.90;;;;;;5037641;28;19925;-72
2022/02/02 11:53:12;;;;;;;;;;;4.90;99.90;;;;;;5040270;28;20128;-72
2022/02/02 11:55:43;;;;;;;;;;;5.20;99.90;;;;;;5048320;28;19972;-72
2022/02/02 11:58:15;;;;;;;;;;;5.30;99.90;;;;;;5057571;28;19956;-72
2022/02/02 12:01:22;;;;;;;;;;;5.60;99.90;;;;;;5040667;28;19920;-73
2022/02/02 12:03:51;;;;;;;;;;;5.70;99.90;;;;;;5040797;28;20251;-71
2022/02/02 12:19:07;;;;;;;;;;;6.20;99.90;;;;;;4990346;28;20120;-72
2022/02/02 12:21:31;;;;;;;;;;;6.40;99.90;;;;;;5041114;28;20023;-73
2022/02/02 12:48:15;;;;;;;;;;;7.00;99.90;;;;;;5035473;28;19974;-72
2022/02/02 12:56:25;;;;;;;;;;;6.60;99.90;;;;;;5039167;28;20015;-72
2022/02/02 12:59:12;;;;;;;;;;;6.50;99.90;;;;;;5040542;28;20374;-72
2022/02/02 13:01:39;;;;;;;;;;;6.50;99.90;;;;;;5033128;28;19949;-73
2022/02/02 13:04:08;;;;;;;;;;;6.40;99.90;;;;;;5032296;28;19963;-72
2022/02/02 13:06:40;;;;;;;;;;;6.30;99.90;;;;;;5052526;28;20385;-72
2022/02/02 13:09:07;;;;;;;;;;;6.40;99.90;;;;;;5046262;28;20389;-74
2022/02/02 13:11:34;;;;;;;;;;;6.50;99.90;;;;;;5028838;22;20464;-77
2022/02/02 13:14:03;;;;;;;;;;;6.60;99.90;;;;;;5032138;28;20202;-75
2022/02/02 13:16:31;;;;;;;;;;;6.60;99.90;;;;;;5034465;28;19975;-75
2022/02/02 13:19:12;;;;;;;;;;;6.50;99.90;;;;;;5034214;28;19967;-75
2022/02/02 13:21:45;;;;;;;;;;;6.40;99.90;;;;;;5017062;28;20113;-74
2022/02/02 13:24:18;;;;;;;;;;;6.40;99.90;;;;;;5018083;28;19925;-74
2022/02/02 13:32:01;;;;;;;;;;;6.50;99.90;;;;;;5037756;28;19924;-73
2022/02/02 13:34:37;;;;;;;;;;;6.50;99.90;;;;;;5033553;28;19931;-73
2022/02/02 13:37:35;;;;;;;;;;;6.50;99.90;;;;;;5055864;28;19920;-73
2022/02/02 13:54:17;;;;;;;;;;;6.80;99.90;;;;;;5051732;28;19956;-73
2022/02/02 14:09:19;;;;;;;;;;;6.40;99.90;;;;;;5048544;28;19927;-76
2022/02/02 14:33:57;;;;;;;;;;;6.50;99.90;;;;;;4993184;28;19927;-74
2022/02/02 14:36:28;;;;;;;;;;;6.50;99.90;;;;;;4993443;28;20750;-74
2022/02/02 14:39:01;;;;;;;;;;;6.70;99.90;;;;;;5027427;28;19956;-76
2022/02/02 14:44:23;;;;;;;;;;;7.00;99.90;;;;;;5055918;28;20319;-74
2022/02/02 14:47:14;;;;;;;;;;;6.90;99.90;;;;;;5040239;28;20380;-75
2022/02/02 14:50:21;;;;;;;;;;;7.00;99.90;;;;;;5055168;28;20346;-75
2022/02/02 14:53:24;;;;;;;;;;;7.10;99.90;;;;;;5034762;28;20309;-74
2022/02/02 15:27:02;;;;;;;;;;;6.60;99.90;;;;;;5037626;28;19928;-76
2022/02/02 15:28:23;;;;;;;;;;;6.60;99.90;;;;;;5048243;28;20284;-75
2022/02/02 15:30:58;;;;;;;;;;;6.40;99.90;;;;;;5056696;28;19924;-74
2022/02/02 15:33:28;;;;;;;;;;;6.40;99.90;;;;;;5037744;28;20051;-76
2022/02/02 15:38:53;;;;;;;;;;;6.30;99.90;;;;;;5028440;28;20413;-76
2022/02/02 15:41:30;;;;;;;;;;;6.20;99.90;;;;;;5036614;28;20198;-74
2022/02/02 16:03:09;;;;;;;;;;;5.90;99.90;;;;;;5056965;28;19970;-74
2022/02/02 16:05:43;;;;;;;;;;;5.90;99.90;;;;;;5034967;28;19985;-75
2022/02/02 16:08:12;;;;;;;;;;;5.90;99.90;;;;;;5059097;28;19982;-75
2022/02/02 16:10:45;;;;;;;;;;;5.80;99.90;;;;;;5050567;28;20004;-74
2022/02/02 16:15:57;;;;;;;;;;;5.80;99.90;;;;;;5072769;28;19928;-74
2022/02/02 16:18:38;;;;;;;;;;;5.80;99.90;;;;;;5057293;28;19981;-73
2022/02/02 16:35:14;;;;;;;;;;;5.60;99.90;;;;;;5054842;28;19926;-75
2022/02/02 16:37:44;;;;;;;;;;;5.50;99.90;;;;;;5053339;28;19932;-75
2022/02/02 16:40:14;;;;;;;;;;;5.50;99.90;;;;;;5040162;28;19990;-74
2022/02/02 16:43:09;;;;;;;;;;;5.40;99.90;;;;;;5056399;28;19951;-74
2022/02/02 16:45:38;;;;;;;;;;;5.40;99.90;;;;;;5036118;28;19986;-76
2022/02/02 16:48:05;;;;;;;;;;;5.20;99.90;;;;;;5019467;28;20023;-75
2022/02/02 16:50:35;;;;;;;;;;;5.20;99.90;;;;;;5021667;28;19927;-76
2022/02/02 16:53:12;;;;;;;;;;;5.10;99.90;;;;;;5040035;28;19924;-75
2022/02/02 16:55:56;;;;;;;;;;;5.10;99.90;;;;;;5058002;28;19974;-75
2022/02/02 17:27:49;;;;;;;;;;;4.70;99.90;;;;;;5057857;28;20030;-76
2022/02/02 17:34:37;;;;;;;;;;;4.70;99.90;;;;;;5036511;28;19974;-76
2022/02/02 17:37:35;;;;;;;;;;;4.70;99.90;;;;;;5052914;28;19936;-74
2022/02/02 17:40:12;;;;;;;;;;;4.60;99.90;;;;;;5039591;28;19974;-76
2022/02/02 17:45:34;;;;;;;;;;;4.70;99.90;;;;;;5042283;28;20205;-76
2022/02/02 18:21:16;;;;;;;;;;;4.30;99.90;;;;;;5056421;28;20461;-74
2022/02/02 18:23:53;;;;;;;;;;;4.20;99.90;;;;;;5055413;28;20358;-77
2022/02/02 18:29:21;;;;;;;;;;;4.10;99.90;;;;;;5055928;28;20213;-77
2022/02/02 18:50:26;;;;;;;;;;;3.20;99.90;;;;;;5056092;28;19929;-77
2022/02/02 18:55:43;;;;;;;;;;;3.00;99.90;;;;;;5056356;28;19920;-77
2022/02/02 18:58:26;;;;;;;;;;;2.90;99.90;;;;;;5061859;28;19924;-76
2022/02/02 19:56:43;;;;;;;;;;;1.50;99.90;;;;;;4960112;28;19926;-76
2022/02/02 20:12:14;;;;;;;;;;;1.30;99.90;;;;;;4987287;28;20015;-75
2022/02/02 20:14:41;;;;;;;;;;;1.30;99.90;;;;;;5022544;28;19964;-76
2022/02/02 20:17:16;;;;;;;;;;;1.20;99.90;;;;;;5003503;28;20008;-75
2022/02/02 20:19:47;;;;;;;;;;;1.10;99.90;;;;;;5041783;28;19921;-75
2022/02/02 20:22:17;;;;;;;;;;;1.00;99.90;;;;;;5040440;28;19975;-75
2022/02/02 20:24:52;;;;;;;;;;;0.90;99.90;;;;;;5045654;28;20017;-76
2022/02/02 20:27:19;;;;;;;;;;;0.90;99.90;;;;;;5047654;28;20418;-75
2022/02/02 20:29:45;;;;;;;;;;;0.90;99.90;;;;;;5047785;28;19924;-75
2022/02/02 20:32:12;;;;;;;;;;;0.90;99.90;;;;;;5045975;28;20167;-76
2022/02/02 20:34:39;;;;;;;;;;;0.80;99.90;;;;;;5046006;28;20672;-75
2022/02/02 20:37:05;;;;;;;;;;;0.70;99.90;;;;;;5045777;28;19935;-74
2022/02/02 20:42:02;;;;;;;;;;;0.60;99.90;;;;;;5056776;28;20030;-76
2022/02/02 20:44:47;;;;;;;;;;;0.60;99.90;;;;;;5043521;28;19954;-74
2022/02/02 21:14:13;;;;;;;;;;;0.70;99.90;;;;;;4964170;28;19958;-75
2022/02/02 21:16:43;;;;;;;;;;;0.70;99.90;;;;;;4995634;28;20020;-74
2022/02/02 21:19:20;;;;;;;;;;;0.60;99.90;;;;;;5025768;28;19991;-75
2022/02/02 21:21:52;;;;;;;;;;;0.50;99.90;;;;;;5045378;28;20266;-76
2022/02/02 21:29:25;;;;;;;;;;;0.30;99.90;;;;;;5030900;28;20023;-78
2022/02/02 21:31:52;;;;;;;;;;;0.30;99.90;;;;;;5034711;28;19960;-77
2022/02/02 21:34:21;;;;;;;;;;;0.30;99.90;;;;;;5006440;28;19932;-78
2022/02/02 21:36:48;;;;;;;;;;;0.50;99.90;;;;;;5023842;28;20009;-78
2022/02/02 21:39:23;;;;;;;;;;;0.60;99.90;;;;;;5019679;28;19994;-77
2022/02/02 21:41:52;;;;;;;;;;;0.60;99.90;;;;;;5036392;28;20192;-78
2022/02/02 21:44:19;;;;;;;;;;;0.60;99.90;;;;;;5026429;28;20020;-78
2022/02/02 21:46:47;;;;;;;;;;;0.70;99.90;;;;;;5025732;28;19928;-77
2022/02/02 21:49:19;;;;;;;;;;;0.70;99.90;;;;;;5044097;28;20448;-77
2022/02/02 21:54:18;;;;;;;;;;;0.60;99.90;;;;;;5045001;28;19921;-77
2022/02/02 21:56:45;;;;;;;;;;;0.60;99.90;;;;;;5026292;28;20183;-78
2022/02/02 21:59:11;;;;;;;;;;;0.60;99.90;;;;;;5026032;28;20031;-78
2022/02/02 22:01:38;;;;;;;;;;;0.70;99.90;;;;;;5043579;28;19966;-78
2022/02/02 22:04:05;;;;;;;;;;;0.70;99.90;;;;;;5043286;28;20012;-79
2022/02/02 22:06:31;;;;;;;;;;;0.70;99.90;;;;;;5056463;28;19924;-77
2022/02/02 22:08:58;;;;;;;;;;;0.70;99.90;;;;;;5045801;28;20331;-78
2022/02/02 22:11:25;;;;;;;;;;;0.70;99.90;;;;;;5019322;28;19931;-77
2022/02/02 22:14:01;;;;;;;;;;;0.60;99.90;;;;;;5046101;28;19924;-77
2022/02/02 22:16:28;;;;;;;;;;;0.60;99.90;;;;;;5063612;28;19964;-77
2022/02/02 22:18:56;;;;;;;;;;;0.60;99.90;;;;;;5063557;28;19968;-77
2022/02/02 22:21:25;;;;;;;;;;;0.50;99.90;;;;;;5061475;28;19931;-77
2022/02/02 22:23:51;;;;;;;;;;;0.40;99.90;;;;;;5026584;28;19963;-77
2022/02/02 22:26:20;;;;;;;;;;;0.40;99.90;;;;;;5042893;28;19925;-77
2022/02/02 22:28:47;;;;;;;;;;;0.60;99.90;;;;;;5043925;28;20027;-79
2022/02/02 22:31:13;;;;;;;;;;;0.40;99.90;;;;;;5042337;28;19960;-78
2022/02/02 22:33:40;;;;;;;;;;;0.40;99.90;;;;;;5043347;28;20011;-78
2022/02/02 22:36:12;;;;;;;;;;;0.40;99.90;;;;;;5045587;28;19924;-78
2022/02/02 22:38:40;;;;;;;;;;;0.40;99.90;;;;;;5037997;28;20265;-78
2022/02/02 22:41:07;;;;;;;;;;;0.20;99.90;;;;;;5050957;28;20351;-78
2022/02/02 22:43:34;;;;;;;;;;;0.30;99.90;;;;;;5043472;28;19935;-78
2022/02/02 22:46:00;;;;;;;;;;;0.60;99.90;;;;;;5043354;28;19924;-77
2022/02/02 22:48:31;;;;;;;;;;;0.60;99.90;;;;;;5042357;28;20011;-78
2022/02/02 22:50:58;;;;;;;;;;;0.70;99.90;;;;;;5043693;28;19939;-77
2022/02/02 22:53:25;;;;;;;;;;;0.80;99.90;;;;;;5044122;28;20333;-77
2022/02/02 22:55:52;;;;;;;;;;;0.80;99.90;;;;;;5044209;28;20653;-78
2022/02/02 22:58:19;;;;;;;;;;;0.80;99.90;;;;;;5042369;28;20017;-78
2022/02/02 23:00:48;;;;;;;;;;;0.80;99.90;;;;;;5043180;28;20453;-77
2022/02/02 23:03:17;;;;;;;;;;;0.80;99.90;;;;;;5048852;28;19920;-76
2022/02/02 23:05:47;;;;;;;;;;;0.90;99.90;;;;;;5064255;28;19920;-77
2022/02/02 23:08:15;;;;;;;;;;;0.90;99.90;;;;;;5043202;28;19927;-76
2022/02/02 23:10:42;;;;;;;;;;;0.90;99.90;;;;;;5051471;28;19927;-77
2022/02/02 23:13:10;;;;;;;;;;;0.90;99.90;;;;;;5041661;28;19928;-77
2022/02/02 23:18:21;;;;;;;;;;;1.00;99.90;;;;;;5041636;28;20483;-77
2022/02/02 23:20:53;;;;;;;;;;;1.00;99.90;;;;;;5041801;28;19921;-77
2022/02/02 23:23:21;;;;;;;;;;;1.20;99.90;;;;;;5024675;28;19947;-77
2022/02/02 23:25:49;;;;;;;;;;;1.20;99.90;;;;;;5024729;28;19924;-77
2022/02/02 23:28:22;;;;;;;;;;;1.30;99.90;;;;;;5026902;28;19960;-77
2022/02/02 23:30:49;;;;;;;;;;;1.50;99.90;;;;;;5024411;28;19988;-77
2022/02/02 23:33:15;;;;;;;;;;;1.70;99.90;;;;;;5042103;28;19964;-77
2022/02/02 23:35:43;;;;;;;;;;;1.60;99.90;;;;;;5041976;28;20026;-77
2022/02/02 23:38:11;;;;;;;;;;;1.70;99.90;;;;;;5042840;28;20011;-77
2022/02/02 23:43:25;;;;;;;;;;;1.80;99.90;;;;;;5026597;28;19982;-78
2022/02/02 23:46:13;;;;;;;;;;;1.90;99.90;;;;;;5044844;28;19948;-77
2022/02/02 23:48:42;;;;;;;;;;;1.90;99.90;;;;;;5054879;28;19936;-76
2022/02/02 23:51:15;;;;;;;;;;;2.00;99.90;;;;;;5020849;28;19928;-77
2022/02/02 23:53:42;;;;;;;;;;;2.00;99.90;;;;;;5058846;28;20733;-77
2022/02/02 23:56:21;;;;;;;;;;;2.00;99.90;;;;;;5041850;28;20007;-75
2022/02/02 23:58:51;;;;;;;;;;;2.10;99.90;;;;;;5023691;28;20027;-77
